Time;durP1;ratioP1;P1;durP2;ratioP2;P2;SDS_P1;SDS_P2;PMS_P1;PMS_P2;Temp;Humidity;BMP_temperature;BMP_pressure;BME280_temperature;BME280_humidity;BME280_pressure;Samples;Min_cycle;Max_cycle;Signal;HPM_P1;HPM_P2
2022/03/28 00:01:45;;;;;;;38.77;17.67;;;;;;;7.50;100.00;61604.03;5093454;28;20970;-71
2022/03/28 00:04:12;;;;;;;34.53;17.23;;;;;;;7.37;100.00;61590.69;5093566;28;20866;-71
2022/03/28 00:06:40;;;;;;;36.10;17.57;;;;;;;7.42;100.00;61598.56;5093287;28;20473;-71
2022/03/28 00:09:07;;;;;;;34.77;17.97;;;;;;;7.36;100.00;61594.69;5093191;28;20218;-72
2022/03/28 00:11:34;;;;;;;29.37;15.93;;;;;;;7.28;100.00;61580.53;5093203;28;20487;-71
2022/03/28 00:14:01;;;;;;;34.60;15.47;;;;;;;7.28;100.00;61586.16;5093185;28;20723;-70
2022/03/28 00:16:28;;;;;;;37.57;16.43;;;;;;;7.34;100.00;61587.50;5093050;28;20572;-72
2022/03/28 00:18:55;;;;;;;28.73;15.00;;;;;;;7.33;100.00;61585.88;5093441;28;20483;-71
2022/03/28 00:21:21;;;;;;;28.90;15.07;;;;;;;7.32;100.00;61585.34;5093108;28;21016;-72
2022/03/28 00:23:50;;;;;;;29.37;15.00;;;;;;;7.48;100.00;61607.50;5092903;28;20449;-71
2022/03/28 00:26:16;;;;;;;31.93;15.30;;;;;;;7.25;100.00;61577.88;5093886;28;20434;-72
2022/03/28 00:28:43;;;;;;;35.87;16.63;;;;;;;7.07;100.00;61558.13;5092854;28;20433;-71
2022/03/28 00:31:10;;;;;;;30.53;15.60;;;;;;;6.94;100.00;61549.84;5093023;28;20932;-71
2022/03/28 00:33:37;;;;;;;30.87;13.83;;;;;;;7.07;100.00;61563.72;5093068;28;20437;-71
2022/03/28 00:36:05;;;;;;;26.87;13.73;;;;;;;7.11;100.00;61562.94;5092886;28;20481;-71
2022/03/28 00:38:31;;;;;;;23.23;12.23;;;;;;;6.55;100.00;61508.22;5093497;28;20521;-71
2022/03/28 00:41:00;;;;;;;17.77;9.43;;;;;;;7.45;100.00;61598.69;5093061;28;20442;-73
2022/03/28 00:43:28;;;;;;;23.53;11.60;;;;;;;7.41;100.00;61597.50;5092967;28;20457;-71
2022/03/28 00:45:55;;;;;;;22.13;11.20;;;;;;;7.38;100.00;61594.28;5092386;28;20482;-72
2022/03/28 00:48:21;;;;;;;16.93;9.60;;;;;;;7.54;100.00;61608.84;5092903;28;20437;-72
2022/03/28 00:50:49;;;;;;;14.60;8.13;;;;;;;7.32;100.00;61587.34;5092987;28;20445;-71
2022/03/28 00:53:16;;;;;;;19.13;8.43;;;;;;;7.30;100.00;61585.75;5092787;28;20496;-71
2022/03/28 00:55:43;;;;;;;16.60;8.33;;;;;;;7.47;100.00;61601.38;5092745;28;20489;-71
2022/03/28 00:58:11;;;;;;;15.50;7.87;;;;;;;7.57;100.00;61609.50;5092703;28;20521;-72
2022/03/28 01:00:39;;;;;;;18.97;8.63;;;;;;;7.53;100.00;61607.78;5092615;28;20865;-72
2022/03/28 01:03:06;;;;;;;13.43;7.77;;;;;;;7.48;100.00;61599.91;5092189;28;20517;-71
2022/03/28 01:05:33;;;;;;;14.87;7.87;;;;;;;7.43;100.00;61599.09;5092786;28;20434;-71
2022/03/28 01:08:00;;;;;;;16.37;8.47;;;;;;;7.06;100.00;61557.06;5092632;28;20881;-71
2022/03/28 01:10:29;;;;;;;20.07;8.97;;;;;;;7.19;100.00;61571.47;5092512;28;21017;-71
2022/03/28 01:12:56;;;;;;;16.83;7.90;;;;;;;7.29;100.00;61577.06;5092583;28;20446;-71
2022/03/28 01:15:24;;;;;;;16.17;9.30;;;;;;;7.09;100.00;61555.72;5092411;28;21047;-72
2022/03/28 01:20:38;;;;;;;20.07;8.40;;;;;;;7.25;100.00;61582.94;5092638;28;20425;-71
2022/03/28 01:23:07;;;;;;;17.87;8.50;;;;;;;7.31;100.00;61584.28;5092486;28;20433;-72
2022/03/28 01:25:34;;;;;;;18.70;8.73;;;;;;;7.32;100.00;61585.34;5092470;28;20425;-72
2022/03/28 01:28:03;;;;;;;18.40;7.77;;;;;;;7.28;100.00;61580.53;5092748;28;20454;-71
2022/03/28 01:30:33;;;;;;;17.00;8.53;;;;;;;7.32;100.00;61585.34;5092291;28;20526;-71
2022/03/28 01:33:01;;;;;;;15.23;8.20;;;;;;;7.27;100.00;61582.53;5092231;28;20438;-70
2022/03/28 01:35:31;;;;;;;14.63;7.57;;;;;;;7.03;100.00;61551.84;5092543;28;20487;-70
2022/03/28 01:37:59;;;;;;;15.47;8.30;;;;;;;7.09;100.00;61560.78;5092189;28;20445;-71
2022/03/28 01:40:28;;;;;;;14.33;7.03;;;;;;;7.03;100.00;61559.44;5092231;28;20434;-71
2022/03/28 01:42:55;;;;;;;18.33;7.43;;;;;;;7.11;100.00;61562.94;5092711;28;20506;-72
2022/03/28 01:45:22;;;;;;;13.93;7.93;;;;;;;7.05;100.00;61558.50;5092103;28;20441;-70
2022/03/28 01:47:49;;;;;;;17.17;8.30;;;;;;;6.99;100.00;61550.13;5091802;28;20438;-70
2022/03/28 01:50:17;;;;;;;14.37;7.40;;;;;;;6.95;100.00;61545.84;5090761;28;20433;-71
2022/03/28 01:52:43;;;;;;;18.00;8.43;;;;;;;6.97;100.00;61547.44;5092532;28;20504;-72
2022/03/28 01:55:11;;;;;;;20.07;8.90;;;;;;;6.90;100.00;61540.53;5092023;28;20480;-73
2022/03/28 01:57:41;;;;;;;26.43;8.93;;;;;;;6.83;100.00;61533.03;5095935;28;20866;-72
2022/03/28 02:00:10;;;;;;;15.07;8.33;;;;;;;6.73;100.00;61520.38;5095697;28;20541;-70
2022/03/28 02:02:38;;;;;;;19.90;8.70;;;;;;;6.63;100.00;61511.69;5095819;28;20445;-72
2022/03/28 02:05:05;;;;;;;24.83;9.87;;;;;;;6.59;100.00;61507.97;5095593;28;20523;-71
2022/03/28 02:07:33;;;;;;;20.50;8.97;;;;;;;6.46;100.00;61501.16;5095633;28;20811;-72
2022/03/28 02:10:00;;;;;;;14.50;8.43;;;;;;;5.82;100.00;61426.34;5095879;28;20501;-70
2022/03/28 02:12:27;;;;;;;14.13;7.90;;;;;;;6.68;100.00;61519.56;5096096;28;20438;-71
2022/03/28 02:14:55;;;;;;;13.47;7.63;;;;;;;6.72;100.00;61519.31;5096386;28;20438;-72
2022/03/28 02:17:22;;;;;;;17.13;7.87;;;;;;;6.74;100.00;61523.97;5095621;28;20433;-71
2022/03/28 02:19:51;;;;;;;19.83;7.97;;;;;;;6.70;100.00;61521.72;5095570;28;20951;-71
2022/03/28 02:22:17;;;;;;;18.80;8.33;;;;;;;6.68;100.00;61519.56;5095504;28;20433;-72
2022/03/28 02:24:44;;;;;;;21.83;9.10;;;;;;;6.57;100.00;61507.81;5095291;28;20437;-70
2022/03/28 02:27:11;;;;;;;17.30;8.33;;;;;;;6.58;100.00;61508.91;5095474;28;20453;-71
2022/03/28 02:29:38;;;;;;;17.83;7.93;;;;;;;6.58;100.00;61506.88;5095301;28;20473;-72
2022/03/28 02:32:08;;;;;;;15.53;8.53;;;;;;;6.67;100.00;61515.97;5095395;28;20433;-71
2022/03/28 02:34:35;;;;;;;16.80;7.87;;;;;;;6.71;100.00;61520.22;5095402;28;20430;-71
2022/03/28 02:37:03;;;;;;;18.33;8.27;;;;;;;6.64;100.00;61512.78;5095393;28;20546;-71
2022/03/28 02:39:30;;;;;;;13.27;7.80;;;;;;;6.60;100.00;61511.56;5095167;28;20442;-71
2022/03/28 02:41:58;;;;;;;17.47;7.77;;;;;;;6.44;100.00;61491.44;5095927;28;20490;-71
2022/03/28 02:44:24;;;;;;;17.47;9.40;;;;;;;6.44;100.00;61493.97;5095864;28;20441;-71
2022/03/28 02:46:51;;;;;;;20.80;9.50;;;;;;;6.33;100.00;61479.69;5095947;28;20502;-72
2022/03/28 02:49:19;;;;;;;21.27;10.37;;;;;;;5.61;100.00;61411.56;5094873;28;20487;-71
2022/03/28 02:51:46;;;;;;;25.13;9.67;;;;;;;6.23;100.00;61469.03;5094310;28;20461;-70
2022/03/28 02:54:13;;;;;;;24.00;9.73;;;;;;;6.07;100.00;61452.50;5095155;28;20469;-72
2022/03/28 02:56:40;;;;;;;22.60;9.90;;;;;;;4.76;100.00;61313.94;5094816;28;20902;-72
2022/03/28 02:59:07;;;;;;;20.00;10.30;;;;;;;5.66;100.00;61411.81;5094816;28;20529;-74
2022/03/28 03:01:35;;;;;;;28.83;11.77;;;;;;;5.47;100.00;61389.06;5094804;28;20533;-72
2022/03/28 03:04:02;;;;;;;28.90;13.40;;;;;;;5.36;100.00;61377.34;5094632;28;20449;-71
2022/03/28 03:06:30;;;;;;;29.63;12.70;;;;;;;5.49;100.00;61385.59;5094478;28;20449;-71
2022/03/28 03:08:58;;;;;;;38.90;19.30;;;;;;;5.65;100.00;61408.25;5098006;28;20438;-71
2022/03/28 03:11:25;;;;;;;380.63;147.83;;;;;;;5.48;100.00;61392.66;5106718;28;20440;-73
2022/03/28 03:13:53;;;;;;;151.00;54.67;;;;;;;5.31;100.00;61372.00;5108346;28;20438;-71
2022/03/28 03:16:20;;;;;;;66.07;26.63;;;;;;;5.28;100.00;61370.78;5106581;28;21003;-71
2022/03/28 03:18:48;;;;;;;52.20;22.53;;;;;;;5.13;100.00;61352.84;5100263;28;20524;-72
2022/03/28 03:21:17;;;;;;;95.63;35.07;;;;;;;5.17;100.00;61362.16;5094952;28;21042;-73
2022/03/28 03:23:45;;;;;;;55.80;19.87;;;;;;;5.21;100.00;61361.34;5094524;28;20438;-72
2022/03/28 03:26:12;;;;;;;55.63;25.40;;;;;;;5.17;100.00;61356.56;5094377;28;20507;-71
2022/03/28 03:28:39;;;;;;;54.67;23.00;;;;;;;5.22;100.00;61367.47;5094395;28;20429;-71
2022/03/28 03:31:07;;;;;;;36.40;15.40;;;;;;;5.22;100.00;61362.41;5094011;28;20488;-71
2022/03/28 03:33:34;;;;;;;24.33;11.60;;;;;;;5.33;100.00;61374.16;5093956;28;20886;-72
2022/03/28 03:36:02;;;;;;;37.87;13.90;;;;;;;5.38;100.00;61381.44;5093059;28;20484;-72
2022/03/28 03:38:28;;;;;;;54.17;15.90;;;;;;;5.31;100.00;61374.00;5094038;28;20543;-70
2022/03/28 03:40:56;;;;;;;30.77;12.50;;;;;;;5.34;100.00;61374.66;5094630;28;20452;-71
2022/03/28 03:43:25;;;;;;;33.67;12.80;;;;;;;5.35;100.00;61373.75;5093818;28;20433;-72
2022/03/28 03:45:51;;;;;;;22.33;9.80;;;;;;;5.19;100.00;61366.81;5094547;28;20818;-72
2022/03/28 03:48:19;;;;;;;21.50;10.57;;;;;;;5.54;100.00;61398.50;5094616;28;20495;-71
2022/03/28 03:50:46;;;;;;;23.67;9.63;;;;;;;5.27;100.00;61369.75;5093971;28;20437;-72
2022/03/28 03:53:13;;;;;;;38.00;15.40;;;;;;;5.28;100.00;61368.81;5093648;28;20508;-71
2022/03/28 03:55:39;;;;;;;35.93;12.60;;;;;;;5.38;100.00;61379.47;5093496;28;20507;-71
2022/03/28 03:58:08;;;;;;;25.93;10.23;;;;;;;5.48;100.00;61392.09;5092102;28;20823;-72
2022/03/28 04:00:35;;;;;;;18.40;9.00;;;;;;;5.57;100.00;61399.72;5093321;28;20442;-71
2022/03/28 04:03:03;;;;;;;24.27;10.90;;;;;;;5.50;100.00;61397.31;5093545;28;20441;-71
2022/03/28 04:05:29;;;;;;;17.17;8.80;;;;;;;5.05;100.00;61339.25;5093495;28;20529;-72
2022/03/28 04:07:56;;;;;;;26.90;9.73;;;;;;;5.50;100.00;61394.25;5093355;28;20441;-72
2022/03/28 04:10:23;;;;;;;16.80;8.20;;;;;;;5.40;100.00;61384.13;5093829;28;20491;-74
2022/03/28 04:12:50;;;;;;;14.60;6.97;;;;;;;5.36;100.00;61379.84;5093388;28;21048;-72
2022/03/28 04:15:19;;;;;;;17.30;7.73;;;;;;;5.33;100.00;61378.66;5093126;28;20498;-74
2022/03/28 04:17:48;;;;;;;25.37;9.10;;;;;;;4.71;100.00;61310.63;5093311;28;20523;-71
2022/03/28 04:20:16;;;;;;;20.37;8.57;;;;;;;5.41;100.00;61382.66;5092689;28;20429;-73
2022/03/28 04:22:45;;;;;;;14.90;8.20;;;;;;;5.42;100.00;61386.25;5093199;28;20442;-71
2022/03/28 04:25:15;;;;;;;16.30;7.97;;;;;;;5.51;100.00;61393.31;5093144;28;20444;-72
2022/03/28 04:27:42;;;;;;;21.93;8.13;;;;;;;5.54;100.00;61398.50;5093256;28;20442;-71
2022/03/28 04:30:10;;;;;;;15.80;7.90;;;;;;;5.41;100.00;61382.13;5092995;28;20534;-72
2022/03/28 04:32:39;;;;;;;17.33;8.20;;;;;;;5.39;100.00;61383.06;5092493;28;20454;-71
2022/03/28 04:35:08;;;;;;;14.73;8.03;;;;;;;5.46;100.00;61387.97;5092984;28;20434;-71
2022/03/28 04:37:36;;;;;;;18.13;8.17;;;;;;;5.52;100.00;61393.84;5092755;28;20478;-72
2022/03/28 04:40:05;;;;;;;16.87;7.53;;;;;;;5.47;100.00;61394.13;5091682;28;20445;-72
2022/03/28 04:42:32;;;;;;;13.93;7.80;;;;;;;5.27;100.00;61370.28;5092655;28;20947;-71
2022/03/28 04:44:59;;;;;;;19.53;8.17;;;;;;;5.51;100.00;61395.84;5092218;28;20452;-72
2022/03/28 04:47:25;;;;;;;17.53;7.70;;;;;;;5.49;100.00;61391.19;5092880;28;20511;-71
2022/03/28 04:49:54;;;;;;;17.03;8.17;;;;;;;5.50;100.00;61396.75;5092363;28;20446;-72
2022/03/28 04:52:22;;;;;;;30.23;12.73;;;;;;;5.62;100.00;61402.50;5092734;28;20499;-73
2022/03/28 04:54:48;;;;;;;29.73;14.17;;;;;;;5.43;100.00;61384.81;5094058;28;20502;-72
2022/03/28 04:57:15;;;;;;;38.77;16.80;;;;;;;5.44;100.00;61385.84;5092289;28;20890;-71
2022/03/28 04:59:42;;;;;;;28.50;14.07;;;;;;;5.08;100.00;61353.09;5092935;28;20516;-71
2022/03/28 05:02:09;;;;;;;38.90;15.97;;;;;;;4.99;100.00;61340.44;5092607;28;20437;-71
2022/03/28 05:04:36;;;;;;;31.20;14.43;;;;;;;4.81;100.00;61318.75;5092438;28;20444;-72
2022/03/28 05:07:06;;;;;;;31.40;14.70;;;;;;;4.74;100.00;61308.75;5092031;28;20497;-72
2022/03/28 05:09:32;;;;;;;31.83;14.37;;;;;;;4.89;100.00;61327.28;5092864;28;20436;-71
2022/03/28 05:11:59;;;;;;;31.07;14.50;;;;;;;4.68;100.00;61304.91;5093078;28;20446;-72
2022/03/28 05:14:26;;;;;;;42.17;15.67;;;;;;;5.42;100.00;61378.66;5092852;28;20798;-71
2022/03/28 05:16:53;;;;;;;44.63;16.40;;;;;;;5.43;100.00;61387.31;5092110;28;20473;-72
2022/03/28 05:19:20;;;;;;;51.83;19.53;;;;;;;5.32;100.00;61373.06;5092424;28;20438;-72
2022/03/28 05:21:47;;;;;;;49.13;17.93;;;;;;;5.38;100.00;61379.47;5093044;28;20446;-71
2022/03/28 05:24:15;;;;;;;39.70;16.17;;;;;;;5.51;100.00;61392.78;5092662;28;20438;-71
2022/03/28 05:26:42;;;;;;;44.70;16.63;;;;;;;5.83;100.00;61424.94;5092077;28;20798;-71
2022/03/28 05:29:09;;;;;;;43.47;16.33;;;;;;;4.79;100.00;61319.16;5092092;28;20476;-71
2022/03/28 05:31:36;;;;;;;35.30;14.40;;;;;;;5.97;100.00;61442.38;5092062;28;20438;-72
2022/03/28 05:34:05;;;;;;;50.20;21.53;;;;;;;6.24;100.00;61472.63;5091934;28;20445;-71
2022/03/28 05:36:32;;;;;;;35.90;16.50;;;;;;;6.29;100.00;61480.50;5091939;28;20473;-72
2022/03/28 05:38:59;;;;;;;36.73;17.07;;;;;;;6.49;100.00;61496.75;5091846;28;20544;-73
2022/03/28 05:41:28;;;;;;;35.10;16.90;;;;;;;6.26;100.00;61467.19;5090753;28;21053;-71
2022/03/28 05:43:55;;;;;;;40.70;15.73;;;;;;;6.88;100.00;61538.38;5091947;28;20453;-72
2022/03/28 05:46:25;;;;;;;30.47;14.63;;;;;;;7.03;100.00;61549.31;5092175;28;20434;-73
2022/03/28 05:48:52;;;;;;;35.37;14.33;;;;;;;6.88;100.00;61540.91;5092341;28;20483;-73
2022/03/28 05:51:18;;;;;;;32.93;12.80;;;;;;;7.20;100.00;61572.53;5092187;28;20461;-71
2022/03/28 05:53:45;;;;;;;48.70;16.07;;;;;;;7.28;100.00;61581.09;5091635;28;20442;-71
2022/03/28 05:56:12;;;;;;;33.73;16.10;;;;;;;7.46;100.00;61600.31;5091787;28;20515;-71
2022/03/28 05:58:40;;;;;;;38.80;15.37;;;;;;;7.54;100.00;61613.91;5091628;28;20502;-72
2022/03/28 06:01:08;;;;;;;34.30;15.00;;;;;;;7.81;100.00;61631.56;5091746;28;20446;-70
2022/03/28 06:03:35;;;;;;;35.87;14.83;;;;;;;8.06;100.00;61663.31;5091517;28;21046;-72
2022/03/28 06:06:04;;;;;;;29.63;13.73;;;;;;;8.03;100.00;61660.66;5091421;28;20469;-72
2022/03/28 06:08:31;;;;;;;39.80;15.40;;;;;;;8.37;100.00;61693.94;5092581;28;20441;-71
2022/03/28 06:10:58;;;;;;;41.80;14.80;;;;;;;7.85;100.00;61643.44;5091962;28;20438;-72
2022/03/28 06:13:24;;;;;;;47.03;15.47;;;;;;;7.90;100.00;61646.22;5091539;28;20503;-70
2022/03/28 06:15:52;;;;;;;25.83;14.40;;;;;;;8.57;100.00;61715.31;5091713;28;20672;-72
2022/03/28 06:18:19;;;;;;;31.50;14.40;;;;;;;8.98;100.00;61759.16;5091444;28;20546;-73
2022/03/28 06:20:46;;;;;;;30.43;14.03;;;;;;;9.33;100.00;61799.16;5091689;28;20203;-70
2022/03/28 06:23:13;;;;;;;31.87;14.07;;;;;;;9.68;100.00;61836.06;5091422;28;20205;-70
2022/03/28 06:25:41;;;;;;;29.03;14.37;;;;;;;8.84;100.00;61746.19;5091433;28;20723;-71
2022/03/28 06:28:10;;;;;;;26.43;12.53;;;;;;;9.34;100.00;61797.13;5092185;28;20583;-71
2022/03/28 06:30:37;;;;;;;27.23;12.97;;;;;;;9.62;100.00;61826.56;5091686;28;20239;-72
2022/03/28 06:33:06;;;;;;;25.27;12.30;;;;;;;10.07;100.00;61877.28;5091248;28;20534;-71
2022/03/28 06:35:33;;;;;;;37.03;13.10;;;;;;;10.57;100.00;61930.84;5091395;28;20203;-71
2022/03/28 06:38:00;;;;;;;40.90;14.07;;;;;;;10.53;100.00;61928.56;5091552;28;20254;-71
2022/03/28 06:40:27;;;;;;;39.67;13.53;;;;;;;10.61;100.00;61937.66;5091560;28;20200;-72
2022/03/28 06:42:55;;;;;;;35.93;14.53;;;;;;;10.94;100.00;61970.50;5092923;28;20282;-71
2022/03/28 06:45:22;;;;;;;26.73;13.50;;;;;;;11.26;100.00;62003.72;5094967;28;20674;-72
2022/03/28 06:47:51;;;;;;;35.40;12.90;;;;;;;11.12;100.00;61994.34;5095344;28;20203;-72
2022/03/28 06:50:21;;;;;;;34.97;12.80;;;;;;;11.49;100.00;62033.47;5097973;28;20290;-72
2022/03/28 06:52:48;;;;;;;34.27;13.03;;;;;;;11.73;100.00;62051.59;5097314;28;20705;-71
2022/03/28 06:55:15;;;;;;;25.27;12.67;;;;;;;12.28;100.00;62113.13;5096896;28;20196;-72
2022/03/28 06:57:42;;;;;;;23.70;12.00;;;;;;;12.07;100.00;62090.06;5097778;28;20665;-71
2022/03/28 07:00:11;;;;;;;28.73;12.13;;;;;;;12.30;100.00;62120.38;5096958;28;20204;-72
2022/03/28 07:02:38;;;;;;;21.27;11.90;;;;;;;12.82;100.00;62170.03;5095420;28;20200;-71
2022/03/28 07:05:06;;;;;;;32.23;12.67;;;;;;;13.23;100.00;62208.94;5094941;28;20234;-71
2022/03/28 07:07:50;;;;;;;22.50;11.80;;;;;;;13.91;100.00;62289.69;5094840;28;20235;-73
2022/03/28 07:10:19;;;;;;;21.93;11.90;;;;;;;13.96;100.00;62292.53;5094263;28;20196;-71
2022/03/28 07:12:47;;;;;;;30.30;12.60;;;;;;;14.14;100.00;62309.31;5094508;28;20200;-72
2022/03/28 07:15:14;;;;;;;25.77;11.73;;;;;;;14.24;100.00;62322.06;5094630;28;20203;-70
2022/03/28 07:17:51;;;;;;;24.37;11.80;;;;;;;14.28;100.00;62321.81;5095077;28;20240;-70
2022/03/28 07:20:19;;;;;;;29.60;11.60;;;;;;;14.46;100.00;62345.22;5094321;28;20195;-72
2022/03/28 07:22:46;;;;;;;31.13;13.70;;;;;;;14.04;100.00;62303.69;5093227;28;20207;-72
2022/03/28 07:25:14;;;;;;;34.17;13.83;;;;;;;14.99;94.48;62402.22;5094218;28;20213;-72
2022/03/28 07:27:42;;;;;;;40.70;13.70;;;;;;;15.00;98.91;62403.28;5094287;28;20207;-72
2022/03/28 07:30:11;;;;;;;26.07;13.80;;;;;;;15.15;93.26;62416.88;5094296;28;20638;-71
2022/03/28 07:32:38;;;;;;;30.03;12.63;;;;;;;15.97;88.20;62507.75;5093907;28;20265;-71
2022/03/28 07:35:07;;;;;;;25.00;11.33;;;;;;;15.90;85.16;62495.06;5093782;28;20204;-72
2022/03/28 07:37:35;;;;;;;21.27;10.30;;;;;;;16.19;84.55;62530.34;5092912;28;20227;-72
2022/03/28 07:40:02;;;;;;;26.30;11.80;;;;;;;16.37;82.65;62549.75;5093452;28;20204;-72
2022/03/28 07:42:31;;;;;;;20.67;11.83;;;;;;;16.51;79.88;62562.81;5094147;28;20202;-71
2022/03/28 07:44:58;;;;;;;23.63;11.27;;;;;;;16.45;82.27;62555.78;5094173;28;20195;-71
2022/03/28 07:47:25;;;;;;;24.63;12.50;;;;;;;16.31;80.76;62543.28;5094286;28;20196;-71
2022/03/28 07:49:52;;;;;;;22.37;11.27;;;;;;;16.75;80.41;62588.13;5094567;28;20195;-71
2022/03/28 07:52:21;;;;;;;18.73;9.83;;;;;;;16.70;81.22;62585.34;5094577;28;20199;-72
2022/03/28 07:54:49;;;;;;;24.47;9.97;;;;;;;16.75;80.47;62588.13;5093645;28;20196;-72
2022/03/28 07:57:16;;;;;;;19.93;9.37;;;;;;;16.68;80.72;62583.19;5093674;28;20683;-71
2022/03/28 07:59:46;;;;;;;14.13;8.97;;;;;;;16.36;81.81;62548.69;5093572;28;20233;-70
2022/03/28 08:02:15;;;;;;;16.27;9.47;;;;;;;16.74;83.13;62589.63;5093977;28;20227;-72
2022/03/28 08:04:44;;;;;;;15.43;9.53;;;;;;;17.06;78.74;62624.13;5093928;28;20214;-71
2022/03/28 08:07:14;;;;;;;22.07;9.57;;;;;;;17.02;78.22;62619.81;5091993;28;20219;-73
2022/03/28 08:09:42;;;;;;;30.73;9.60;;;;;;;17.29;77.26;62648.91;5093526;28;20192;-71
2022/03/28 08:12:12;;;;;;;13.33;8.10;;;;;;;16.78;76.16;62593.94;5094039;28;20196;-71
2022/03/28 08:14:39;;;;;;;13.40;8.07;;;;;;;17.76;73.96;62698.56;5093213;28;20253;-72
2022/03/28 08:17:08;;;;;;;12.50;7.83;;;;;;;17.67;73.17;62692.50;5093878;28;20278;-73
2022/03/28 08:19:35;;;;;;;12.37;7.90;;;;;;;17.88;71.13;62709.47;5093614;28;20199;-72
2022/03/28 08:22:04;;;;;;;14.90;8.60;;;;;;;17.83;71.06;62706.13;5092865;28;20196;-71
2022/03/28 08:24:31;;;;;;;15.87;7.93;;;;;;;18.20;71.42;62744.00;5093213;28;20666;-71
2022/03/28 08:26:58;;;;;;;15.00;8.00;;;;;;;18.10;68.93;62730.63;5093027;28;20241;-72
2022/03/28 08:29:27;;;;;;;13.03;7.70;;;;;;;16.27;71.19;62533.81;5092673;28;20671;-71
2022/03/28 08:31:54;;;;;;;12.37;8.10;;;;;;;17.52;71.46;62671.19;5093066;28;20636;-72
2022/03/28 08:34:22;;;;;;;20.90;9.10;;;;;;;17.82;72.06;62702.44;5092839;28;20196;-73
2022/03/28 08:36:49;;;;;;;14.90;7.93;;;;;;;17.96;72.22;62720.13;5092945;28;20594;-72
2022/03/28 08:39:16;;;;;;;15.63;8.23;;;;;;;18.46;69.85;62771.53;5092620;28;20697;-72
2022/03/28 08:41:44;;;;;;;14.77;8.20;;;;;;;18.50;66.40;62776.41;5093641;28;20261;-71
2022/03/28 08:44:11;;;;;;;17.37;8.67;;;;;;;18.20;68.63;62743.44;5093717;28;20191;-72
2022/03/28 08:46:42;;;;;;;16.37;8.63;;;;;;;18.15;67.52;62740.66;5092524;28;20203;-71
2022/03/28 08:49:10;;;;;;;22.57;9.10;;;;;;;18.40;68.05;62767.63;5092789;28;20581;-72
2022/03/28 08:51:39;;;;;;;16.43;9.37;;;;;;;18.72;66.92;62802.19;5092593;28;20196;-71
2022/03/28 08:54:06;;;;;;;16.40;9.47;;;;;;;19.07;64.90;62839.44;5092316;28;20195;-72
2022/03/28 08:56:33;;;;;;;27.87;10.20;;;;;;;19.05;64.59;62840.41;5091123;28;20245;-72
2022/03/28 08:59:00;;;;;;;16.53;8.93;;;;;;;18.52;65.83;62780.59;5092406;28;20231;-72
2022/03/28 09:01:28;;;;;;;13.30;9.23;;;;;;;18.80;63.71;62810.81;5092051;28;20731;-71
2022/03/28 09:03:55;;;;;;;16.20;9.63;;;;;;;19.22;63.90;62856.19;5092225;28;20259;-72
2022/03/28 09:06:36;;;;;;;15.43;9.23;;;;;;;18.97;62.78;62829.19;5091304;28;20268;-72
2022/03/28 09:09:21;;;;;;;17.00;9.20;;;;;;;18.70;65.68;62797.44;5092205;28;20211;-73
2022/03/28 09:11:51;;;;;;;18.73;9.00;;;;;;;18.65;66.98;62789.47;5093669;28;20203;-73
2022/03/28 09:14:28;;;;;;;27.07;9.67;;;;;;;18.73;68.63;62803.28;5091817;28;20752;-71
2022/03/28 09:17:00;;;;;;;14.37;9.23;;;;;;;18.43;67.66;62770.88;5091977;28;20206;-72
2022/03/28 09:19:41;;;;;;;12.83;8.40;;;;;;;18.89;66.80;62820.56;5092177;28;20227;-71
2022/03/28 09:22:11;;;;;;;15.33;8.73;;;;;;;18.89;68.52;62823.13;5092315;28;20257;-73
2022/03/28 09:24:39;;;;;;;16.70;8.60;;;;;;;18.87;66.78;62817.84;5092017;28;20203;-72
2022/03/28 09:27:15;;;;;;;15.57;8.87;;;;;;;18.45;67.93;62773.03;5092097;28;20253;-72
2022/03/28 09:29:59;;;;;;;18.10;8.80;;;;;;;18.34;67.97;62761.69;5091500;28;20231;-70
2022/03/28 09:32:29;;;;;;;14.13;8.40;;;;;;;17.91;67.81;62717.31;5092027;28;20348;-72
2022/03/28 09:35:19;;;;;;;20.57;8.70;;;;;;;18.52;70.05;62778.56;5092116;28;20203;-72
2022/03/28 09:37:57;;;;;;;10.40;7.77;;;;;;;18.73;66.56;62800.16;5089948;28;20288;-72
2022/03/28 09:40:56;;;;;;;16.27;8.67;;;;;;;19.16;66.36;62847.13;5090930;28;20678;-71
2022/03/28 09:43:24;;;;;;;13.90;8.43;;;;;;;19.40;63.40;62872.53;5091545;28;20648;-71
2022/03/28 09:45:53;;;;;;;16.63;8.57;;;;;;;19.69;64.29;62909.03;5091652;28;20199;-73
2022/03/28 09:48:22;;;;;;;25.33;8.97;;;;;;;20.44;62.03;62987.03;5091125;28;20207;-72
2022/03/28 09:50:50;;;;;;;15.30;7.43;;;;;;;20.84;58.71;63029.75;5092057;28;20192;-72
2022/03/28 09:53:20;;;;;;;15.47;8.20;;;;;;;21.25;56.65;63073.59;5091623;28;20195;-71
2022/03/28 09:55:51;;;;;;;13.43;8.57;;;;;;;20.93;57.51;63037.41;5091888;28;20191;-71
2022/03/28 09:58:37;;;;;;;20.60;8.40;;;;;;;20.77;57.16;63016.97;5091065;28;20223;-72
2022/03/28 10:01:08;;;;;;;20.77;8.80;;;;;;;20.64;55.98;63013.81;5091592;28;20206;-71
2022/03/28 10:03:37;;;;;;;20.47;8.03;;;;;;;20.74;56.45;63014.28;5091564;28;20195;-70
2022/03/28 10:06:07;;;;;;;18.13;8.27;;;;;;;20.28;57.80;62964.53;5091483;28;20242;-72
2022/03/28 10:08:35;;;;;;;21.13;7.67;;;;;;;20.88;58.64;63029.44;5091831;28;20192;-72
2022/03/28 10:11:05;;;;;;;20.93;8.60;;;;;;;21.24;54.58;63069.91;5091362;28;20196;-70
2022/03/28 10:13:32;;;;;;;15.57;8.47;;;;;;;21.02;54.01;63052.38;5092516;28;20195;-72
2022/03/28 10:16:00;;;;;;;15.50;8.47;;;;;;;20.94;53.56;63035.91;5090520;28;20199;-72
2022/03/28 10:18:32;;;;;;;18.90;8.47;;;;;;;21.10;53.42;63057.34;5093815;28;20705;-71
2022/03/28 10:21:03;;;;;;;15.50;7.60;;;;;;;21.41;54.43;63090.91;5095563;28;20244;-72
2022/03/28 10:23:35;;;;;;;17.37;8.13;;;;;;;21.42;52.33;63091.97;5095402;28;20257;-71
2022/03/28 10:26:09;;;;;;;18.07;8.97;;;;;;;21.27;51.50;63075.75;5095214;28;20199;-72
2022/03/28 10:28:36;;;;;;;17.90;8.07;;;;;;;21.11;52.35;63055.84;5095305;28;20299;-71
2022/03/28 10:31:16;;;;;;;17.00;8.17;;;;;;;21.25;51.46;63073.59;5093960;28;20239;-71
2022/03/28 10:33:52;;;;;;;18.17;7.87;;;;;;;20.65;52.85;63009.19;5095207;28;20224;-72
2022/03/28 10:36:25;;;;;;;18.77;7.83;;;;;;;20.68;54.00;63007.78;5095532;28;20199;-71
2022/03/28 10:38:52;;;;;;;16.57;7.97;;;;;;;20.40;53.31;62980.09;5095105;28;20311;-72
2022/03/28 10:41:22;;;;;;;20.47;8.07;;;;;;;20.34;55.53;62971.03;5095064;28;20227;-72
2022/03/28 10:43:49;;;;;;;15.83;7.43;;;;;;;20.44;54.08;62987.03;5094897;28;20191;-72
2022/03/28 10:46:19;;;;;;;15.43;7.03;;;;;;;20.34;53.38;62976.22;5094916;28;20206;-72
2022/03/28 10:48:48;;;;;;;23.20;7.40;;;;;;;20.62;56.30;63005.94;5094663;28;20211;-71
2022/03/28 10:51:18;;;;;;;10.90;7.23;;;;;;;20.26;55.04;62964.97;5094738;28;20200;-71
2022/03/28 10:53:47;;;;;;;15.87;7.67;;;;;;;20.11;55.75;62946.13;5095040;28;20210;-72
2022/03/28 10:56:18;;;;;;;11.27;7.07;;;;;;;20.28;53.65;62966.59;5094620;28;20254;-71
2022/03/28 10:58:51;;;;;;;12.70;6.93;;;;;;;20.39;54.58;62981.59;5094531;28;20769;-72
2022/03/28 11:01:21;;;;;;;17.33;7.70;;;;;;;20.27;53.70;62968.09;5094619;28;20670;-71
2022/03/28 11:03:51;;;;;;;14.90;7.60;;;;;;;20.10;53.59;62950.22;5095010;28;20222;-72
2022/03/28 11:06:20;;;;;;;16.23;7.37;;;;;;;20.15;54.31;62953.03;5094597;28;20288;-71
2022/03/28 11:09:01;;;;;;;20.43;7.47;;;;;;;20.19;55.17;62963.09;5094599;28;20204;-73
2022/03/28 11:11:31;;;;;;;16.27;7.83;;;;;;;20.36;55.58;62973.19;5094999;28;20268;-72
2022/03/28 11:14:02;;;;;;;17.17;7.87;;;;;;;20.42;54.60;62987.44;5094120;28;20204;-72
2022/03/28 11:16:44;;;;;;;15.83;7.70;;;;;;;20.40;54.86;62985.28;5094420;28;20213;-71
2022/03/28 11:19:29;;;;;;;16.90;8.27;;;;;;;20.40;53.77;62982.69;5093565;28;20714;-72
2022/03/28 11:22:11;;;;;;;14.07;7.50;;;;;;;20.12;53.87;62949.81;5094248;28;20196;-71
2022/03/28 11:24:49;;;;;;;18.23;8.03;;;;;;;19.86;54.30;62924.28;5092150;28;20717;-71
2022/03/28 11:27:17;;;;;;;15.30;8.13;;;;;;;19.54;52.90;62884.53;5094701;28;20279;-72
2022/03/28 11:29:47;;;;;;;13.13;8.00;;;;;;;19.69;53.74;62905.91;5093588;28;20654;-71
2022/03/28 11:32:16;;;;;;;18.83;9.27;;;;;;;19.91;54.69;62929.69;5093967;28;20199;-73